sensor_id;sensor_type;location;lat;lon;timestamp;temperature;humidity
23267;DHT22;11802;53.160;8.214;2024-01-15T00:02:17;1.80;99.90
23267;DHT22;11802;53.160;8.214;2024-01-15T00:04:43;1.90;99.90
23267;DHT22;11802;53.160;8.214;2024-01-15T00:07:09;2.00;99.90
23267;DHT22;11802;53.160;8.214;2024-01-15T00:09:35;2.10;99.90
23267;DHT22;11802;53.160;8.214;2024-01-15T00:12:01;2.10;99.90
23267;DHT22;11802;53.160;8.214;2024-01-15T00:14:27;2.10;99.90
23267;DHT22;11802;53.160;8.214;2024-01-15T00:16:53;2.00;99.90
23267;DHT22;11802;53.160;8.214;2024-01-15T00:19:21;2.00;99.90
23267;DHT22;11802;53.160;8.214;2024-01-15T00:21:47;2.10;99.90
23267;DHT22;11802;53.160;8.214;2024-01-15T00:24:12;2.10;99.90
23267;DHT22;11802;53.160;8.214;2024-01-15T00:26:38;2.20;99.90
23267;DHT22;11802;53.160;8.214;2024-01-15T00:29:04;2.20;99.90
23267;DHT22;11802;53.160;8.214;2024-01-15T00:31:29;2.10;99.90
23267;DHT22;11802;53.160;8.214;2024-01-15T00:33:55;2.10;99.90
23267;DHT22;11802;53.160;8.214;2024-01-15T00:36:21;2.20;99.90
23267;DHT22;11802;53.160;8.214;2024-01-15T00:38:47;2.20;99.90
23267;DHT22;11802;53.160;8.214;2024-01-15T00:41:13;2.20;99.90
23267;DHT22;11802;53.160;8.214;2024-01-15T00:43:38;2.20;99.90
23267;DHT22;11802;53.160;8.214;2024-01-15T00:46:04;2.20;99.90
23267;DHT22;11802;53.160;8.214;2024-01-15T00:48:30;2.20;99.90
23267;DHT22;11802;53.160;8.214;2024-01-15T00:50:56;2.20;99.90
23267;DHT22;11802;53.160;8.214;2024-01-15T00:53:21;2.20;99.90
23267;DHT22;11802;53.160;8.214;2024-01-15T00:55:50;2.20;99.90
23267;DHT22;11802;53.160;8.214;2024-01-15T00:58:15;2.20;99.90
23267;DHT22;11802;53.160;8.214;2024-01-15T01:00:41;2.20;99.90
23267;DHT22;11802;53.160;8.214;2024-01-15T01:03:07;2.20;99.90
23267;DHT22;11802;53.160;8.214;2024-01-15T01:05:36;2.20;99.90
23267;DHT22;11802;53.160;8.214;2024-01-15T01:08:01;2.20;99.90
23267;DHT22;11802;53.160;8.214;2024-01-15T01:10:27;2.20;99.90
23267;DHT22;11802;53.160;8.214;2024-01-15T01:12:53;2.20;99.90
23267;DHT22;11802;53.160;8.214;2024-01-15T01:15:18;2.20;99.90
23267;DHT22;11802;53.160;8.214;2024-01-15T01:17:44;2.20;99.90
23267;DHT22;11802;53.160;8.214;2024-01-15T01:20:10;2.20;99.90
23267;DHT22;11802;53.160;8.214;2024-01-15T01:22:36;2.10;99.90
23267;DHT22;11802;53.160;8.214;2024-01-15T01:25:02;2.10;99.90
23267;DHT22;11802;53.160;8.214;2024-01-15T01:27:28;2.10;99.90
23267;DHT22;11802;53.160;8.214;2024-01-15T01:29:53;2.10;99.90
23267;DHT22;11802;53.160;8.214;2024-01-15T01:32:19;2.10;99.90
23267;DHT22;11802;53.160;8.214;2024-01-15T01:34:44;2.20;99.90
23267;DHT22;11802;53.160;8.214;2024-01-15T01:37:11;2.20;99.90
23267;DHT22;11802;53.160;8.214;2024-01-15T01:39:40;2.20;99.90
23267;DHT22;11802;53.160;8.214;2024-01-15T01:42:06;2.20;99.90
23267;DHT22;11802;53.160;8.214;2024-01-15T01:44:32;2.20;99.90
23267;DHT22;11802;53.160;8.214;2024-01-15T01:46:58;2.20;99.90
23267;DHT22;11802;53.160;8.214;2024-01-15T01:49:25;2.20;99.90
23267;DHT22;11802;53.160;8.214;2024-01-15T01:51:52;2.30;99.90
23267;DHT22;11802;53.160;8.214;2024-01-15T01:54:18;2.30;99.90
23267;DHT22;11802;53.160;8.214;2024-01-15T01:56:45;2.30;99.90
23267;DHT22;11802;53.160;8.214;2024-01-15T01:59:12;2.30;99.90
23267;DHT22;11802;53.160;8.214;2024-01-15T02:01:39;2.40;99.90
23267;DHT22;11802;53.160;8.214;2024-01-15T02:04:04;2.40;99.90
23267;DHT22;11802;53.160;8.214;2024-01-15T02:06:30;2.40;99.90
23267;DHT22;11802;53.160;8.214;2024-01-15T02:08:56;2.40;99.90
23267;DHT22;11802;53.160;8.214;2024-01-15T02:11:22;2.40;99.90
23267;DHT22;11802;53.160;8.214;2024-01-15T02:13:48;2.30;99.90
23267;DHT22;11802;53.160;8.214;2024-01-15T02:16:13;2.20;99.90
23267;DHT22;11802;53.160;8.214;2024-01-15T02:18:43;2.20;99.90
23267;DHT22;11802;53.160;8.214;2024-01-15T02:21:10;2.10;99.90
23267;DHT22;11802;53.160;8.214;2024-01-15T02:23:36;2.00;99.90
23267;DHT22;11802;53.160;8.214;2024-01-15T02:26:02;2.00;99.90
23267;DHT22;11802;53.160;8.214;2024-01-15T02:28:27;2.00;99.90
23267;DHT22;11802;53.160;8.214;2024-01-15T02:30:53;2.00;99.90
23267;DHT22;11802;53.160;8.214;2024-01-15T02:33:19;2.00;99.90
23267;DHT22;11802;53.160;8.214;2024-01-15T02:35:44;2.00;99.90
23267;DHT22;11802;53.160;8.214;2024-01-15T02:38:12;2.10;99.90
23267;DHT22;11802;53.160;8.214;2024-01-15T02:40:38;2.20;99.90
23267;DHT22;11802;53.160;8.214;2024-01-15T02:43:04;2.20;99.90
23267;DHT22;11802;53.160;8.214;2024-01-15T02:45:29;2.20;99.90
23267;DHT22;11802;53.160;8.214;2024-01-15T02:47:55;2.20;99.90
23267;DHT22;11802;53.160;8.214;2024-01-15T02:50:21;2.20;99.90
23267;DHT22;11802;53.160;8.214;2024-01-15T02:52:46;2.20;99.90
23267;DHT22;11802;53.160;8.214;2024-01-15T02:55:12;2.20;99.90
23267;DHT22;11802;53.160;8.214;2024-01-15T02:57:37;2.20;99.90
23267;DHT22;11802;53.160;8.214;2024-01-15T03:00:03;2.20;99.90
23267;DHT22;11802;53.160;8.214;2024-01-15T03:02:29;2.20;99.90
23267;DHT22;11802;53.160;8.214;2024-01-15T03:04:57;2.20;99.90
23267;DHT22;11802;53.160;8.214;2024-01-15T03:07:22;2.10;99.90
23267;DHT22;11802;53.160;8.214;2024-01-15T03:09:48;2.10;99.90
23267;DHT22;11802;53.160;8.214;2024-01-15T03:12:13;2.10;99.90
23267;DHT22;11802;53.160;8.214;2024-01-15T03:14:39;2.10;99.90
23267;DHT22;11802;53.160;8.214;2024-01-15T03:17:05;2.00;99.90
23267;DHT22;11802;53.160;8.214;2024-01-15T03:19:30;2.10;99.90
23267;DHT22;11802;53.160;8.214;2024-01-15T03:21:56;2.10;99.90
23267;DHT22;11802;53.160;8.214;2024-01-15T03:24:22;2.10;99.90
23267;DHT22;11802;53.160;8.214;2024-01-15T03:26:47;2.00;99.90
23267;DHT22;11802;53.160;8.214;2024-01-15T03:29:13;2.00;99.90
23267;DHT22;11802;53.160;8.214;2024-01-15T03:31:38;2.00;99.90
23267;DHT22;11802;53.160;8.214;2024-01-15T03:34:04;2.00;99.90
23267;DHT22;11802;53.160;8.214;2024-01-15T03:36:30;1.90;99.90
23267;DHT22;11802;53.160;8.214;2024-01-15T03:38:55;2.00;99.90
23267;DHT22;11802;53.160;8.214;2024-01-15T03:41:21;2.00;99.90
23267;DHT22;11802;53.160;8.214;2024-01-15T03:43:46;2.10;99.90
23267;DHT22;11802;53.160;8.214;2024-01-15T03:46:12;2.10;99.90
23267;DHT22;11802;53.160;8.214;2024-01-15T03:48:38;2.00;99.90
23267;DHT22;11802;53.160;8.214;2024-01-15T03:51:03;2.00;99.90
23267;DHT22;11802;53.160;8.214;2024-01-15T03:53:29;1.90;99.90
23267;DHT22;11802;53.160;8.214;2024-01-15T03:55:55;2.00;99.90
23267;DHT22;11802;53.160;8.214;2024-01-15T03:58:20;2.00;99.90
23267;DHT22;11802;53.160;8.214;2024-01-15T04:00:46;2.00;99.90
23267;DHT22;11802;53.160;8.214;2024-01-15T04:03:11;2.10;99.90
23267;DHT22;11802;53.160;8.214;2024-01-15T04:05:38;2.20;99.90
23267;DHT22;11802;53.160;8.214;2024-01-15T04:08:04;2.20;99.90
23267;DHT22;11802;53.160;8.214;2024-01-15T04:10:30;2.20;99.90
23267;DHT22;11802;53.160;8.214;2024-01-15T04:12:55;2.30;99.90
23267;DHT22;11802;53.160;8.214;2024-01-15T04:15:21;2.30;99.90
23267;DHT22;11802;53.160;8.214;2024-01-15T04:17:47;2.30;99.90
23267;DHT22;11802;53.160;8.214;2024-01-15T04:20:12;2.30;99.90
23267;DHT22;11802;53.160;8.214;2024-01-15T04:22:38;2.30;99.90
23267;DHT22;11802;53.160;8.214;2024-01-15T04:25:04;2.30;99.90
23267;DHT22;11802;53.160;8.214;2024-01-15T04:27:29;2.30;99.90
23267;DHT22;11802;53.160;8.214;2024-01-15T04:29:55;2.20;99.90
23267;DHT22;11802;53.160;8.214;2024-01-15T04:32:20;2.20;99.90
23267;DHT22;11802;53.160;8.214;2024-01-15T04:34:46;2.20;99.90
23267;DHT22;11802;53.160;8.214;2024-01-15T04:37:13;2.20;99.90
23267;DHT22;11802;53.160;8.214;2024-01-15T04:39:38;2.20;99.90
23267;DHT22;11802;53.160;8.214;2024-01-15T04:42:04;2.20;99.90
23267;DHT22;11802;53.160;8.214;2024-01-15T04:44:30;2.20;99.90
23267;DHT22;11802;53.160;8.214;2024-01-15T04:46:55;2.10;99.90
23267;DHT22;11802;53.160;8.214;2024-01-15T04:49:21;2.10;99.90
23267;DHT22;11802;53.160;8.214;2024-01-15T04:51:46;2.20;99.90
23267;DHT22;11802;53.160;8.214;2024-01-15T04:54:12;2.20;99.90
23267;DHT22;11802;53.160;8.214;2024-01-15T04:56:38;2.30;99.90
23267;DHT22;11802;53.160;8.214;2024-01-15T04:59:03;2.30;99.90
23267;DHT22;11802;53.160;8.214;2024-01-15T05:01:32;2.30;99.90
23267;DHT22;11802;53.160;8.214;2024-01-15T05:03:58;2.30;99.90
23267;DHT22;11802;53.160;8.214;2024-01-15T05:06:24;2.30;99.90
23267;DHT22;11802;53.160;8.214;2024-01-15T05:08:50;2.30;99.90
23267;DHT22;11802;53.160;8.214;2024-01-15T05:11:16;2.20;99.90
23267;DHT22;11802;53.160;8.214;2024-01-15T05:13:41;2.30;99.90
23267;DHT22;11802;53.160;8.214;2024-01-15T05:16:07;2.20;99.90
23267;DHT22;11802;53.160;8.214;2024-01-15T05:18:32;2.30;99.90
23267;DHT22;11802;53.160;8.214;2024-01-15T05:20:58;2.30;99.90
23267;DHT22;11802;53.160;8.214;2024-01-15T05:23:24;2.30;99.90
23267;DHT22;11802;53.160;8.214;2024-01-15T05:25:49;2.30;99.90
23267;DHT22;11802;53.160;8.214;2024-01-15T05:28:15;2.30;99.90
23267;DHT22;11802;53.160;8.214;2024-01-15T05:30:40;2.20;99.90
23267;DHT22;11802;53.160;8.214;2024-01-15T05:33:06;2.20;99.90
23267;DHT22;11802;53.160;8.214;2024-01-15T05:35:33;2.20;99.90
23267;DHT22;11802;53.160;8.214;2024-01-15T05:37:58;2.20;99.90
23267;DHT22;11802;53.160;8.214;2024-01-15T05:40:24;2.30;99.90
23267;DHT22;11802;53.160;8.214;2024-01-15T05:42:50;2.20;99.90
23267;DHT22;11802;53.160;8.214;2024-01-15T05:45:15;2.30;99.90
23267;DHT22;11802;53.160;8.214;2024-01-15T05:47:41;2.30;99.90
23267;DHT22;11802;53.160;8.214;2024-01-15T05:50:08;2.30;99.90
23267;DHT22;11802;53.160;8.214;2024-01-15T05:52:33;2.30;99.90
23267;DHT22;11802;53.160;8.214;2024-01-15T05:54:59;2.30;99.90
23267;DHT22;11802;53.160;8.214;2024-01-15T05:57:25;2.30;99.90
23267;DHT22;11802;53.160;8.214;2024-01-15T05:59:50;2.30;99.90
23267;DHT22;11802;53.160;8.214;2024-01-15T06:02:16;2.20;99.90
23267;DHT22;11802;53.160;8.214;2024-01-15T06:04:41;2.20;99.90
23267;DHT22;11802;53.160;8.214;2024-01-15T06:07:07;2.20;99.90
23267;DHT22;11802;53.160;8.214;2024-01-15T06:09:32;2.20;99.90
23267;DHT22;11802;53.160;8.214;2024-01-15T06:11:58;2.20;99.90
23267;DHT22;11802;53.160;8.214;2024-01-15T06:14:24;2.20;99.90
23267;DHT22;11802;53.160;8.214;2024-01-15T06:16:49;2.30;99.90
23267;DHT22;11802;53.160;8.214;2024-01-15T06:19:15;2.30;99.90
23267;DHT22;11802;53.160;8.214;2024-01-15T06:21:40;2.20;99.90
23267;DHT22;11802;53.160;8.214;2024-01-15T06:24:06;2.20;99.90
23267;DHT22;11802;53.160;8.214;2024-01-15T06:26:32;2.20;99.90
23267;DHT22;11802;53.160;8.214;2024-01-15T06:28:57;2.20;99.90
23267;DHT22;11802;53.160;8.214;2024-01-15T06:31:23;2.20;99.90
23267;DHT22;11802;53.160;8.214;2024-01-15T06:33:48;2.10;99.90
23267;DHT22;11802;53.160;8.214;2024-01-15T06:36:14;2.10;99.90
23267;DHT22;11802;53.160;8.214;2024-01-15T06:38:43;2.10;99.90
23267;DHT22;11802;53.160;8.214;2024-01-15T06:41:08;2.10;99.90
23267;DHT22;11802;53.160;8.214;2024-01-15T06:43:34;2.20;99.90
23267;DHT22;11802;53.160;8.214;2024-01-15T06:46:00;2.20;99.90
23267;DHT22;11802;53.160;8.214;2024-01-15T06:48:25;2.20;99.90
23267;DHT22;11802;53.160;8.214;2024-01-15T06:50:51;2.20;99.90
23267;DHT22;11802;53.160;8.214;2024-01-15T06:53:16;2.30;99.90
23267;DHT22;11802;53.160;8.214;2024-01-15T06:55:42;2.30;99.90
23267;DHT22;11802;53.160;8.214;2024-01-15T06:58:16;2.30;99.90
23267;DHT22;11802;53.160;8.214;2024-01-15T07:03:38;2.30;99.90
23267;DHT22;11802;53.160;8.214;2024-01-15T07:06:05;2.30;99.90
23267;DHT22;11802;53.160;8.214;2024-01-15T07:08:48;2.30;99.90
23267;DHT22;11802;53.160;8.214;2024-01-15T07:11:15;2.30;99.90
23267;DHT22;11802;53.160;8.214;2024-01-15T07:16:24;2.30;99.90
23267;DHT22;11802;53.160;8.214;2024-01-15T07:18:49;2.30;99.90
23267;DHT22;11802;53.160;8.214;2024-01-15T07:21:15;2.30;99.90
23267;DHT22;11802;53.160;8.214;2024-01-15T07:23:40;2.30;99.90
23267;DHT22;11802;53.160;8.214;2024-01-15T07:26:07;2.30;99.90
23267;DHT22;11802;53.160;8.214;2024-01-15T07:28:35;2.40;99.90
23267;DHT22;11802;53.160;8.214;2024-01-15T07:31:01;2.30;99.90
23267;DHT22;11802;53.160;8.214;2024-01-15T07:33:27;2.30;99.90
23267;DHT22;11802;53.160;8.214;2024-01-15T07:35:52;2.30;99.90
23267;DHT22;11802;53.160;8.214;2024-01-15T07:38:18;2.30;99.90
23267;DHT22;11802;53.160;8.214;2024-01-15T07:40:43;2.20;99.90
23267;DHT22;11802;53.160;8.214;2024-01-15T07:43:09;2.20;99.90
23267;DHT22;11802;53.160;8.214;2024-01-15T07:45:35;2.30;99.90
23267;DHT22;11802;53.160;8.214;2024-01-15T07:48:01;2.30;99.90
23267;DHT22;11802;53.160;8.214;2024-01-15T07:50:26;2.30;99.90
23267;DHT22;11802;53.160;8.214;2024-01-15T07:52:52;2.30;99.90
23267;DHT22;11802;53.160;8.214;2024-01-15T07:55:18;2.30;99.90
23267;DHT22;11802;53.160;8.214;2024-01-15T07:57:44;2.30;99.90
23267;DHT22;11802;53.160;8.214;2024-01-15T08:00:09;2.30;99.90
23267;DHT22;11802;53.160;8.214;2024-01-15T08:02:36;2.20;99.90
23267;DHT22;11802;53.160;8.214;2024-01-15T08:05:02;2.10;99.90
23267;DHT22;11802;53.160;8.214;2024-01-15T08:07:27;2.10;99.90
23267;DHT22;11802;53.160;8.214;2024-01-15T08:09:53;2.10;99.90
23267;DHT22;11802;53.160;8.214;2024-01-15T08:12:19;2.10;99.90
23267;DHT22;11802;53.160;8.214;2024-01-15T08:14:44;2.20;99.90
23267;DHT22;11802;53.160;8.214;2024-01-15T08:17:10;2.20;99.90
23267;DHT22;11802;53.160;8.214;2024-01-15T08:19:36;2.20;99.90
23267;DHT22;11802;53.160;8.214;2024-01-15T08:22:02;2.30;99.90
23267;DHT22;11802;53.160;8.214;2024-01-15T08:24:27;2.40;99.90
23267;DHT22;11802;53.160;8.214;2024-01-15T08:26:54;2.40;99.90
23267;DHT22;11802;53.160;8.214;2024-01-15T08:29:19;2.40;99.90
23267;DHT22;11802;53.160;8.214;2024-01-15T08:31:49;2.50;99.90
23267;DHT22;11802;53.160;8.214;2024-01-15T08:37:16;2.50;99.90
23267;DHT22;11802;53.160;8.214;2024-01-15T08:39:42;2.60;99.90
23267;DHT22;11802;53.160;8.214;2024-01-15T08:42:07;2.60;99.90
23267;DHT22;11802;53.160;8.214;2024-01-15T08:44:33;2.60;99.90
23267;DHT22;11802;53.160;8.214;2024-01-15T08:46:59;2.50;99.90
23267;DHT22;11802;53.160;8.214;2024-01-15T08:49:29;2.50;99.90
23267;DHT22;11802;53.160;8.214;2024-01-15T08:52:30;2.60;99.90
23267;DHT22;11802;53.160;8.214;2024-01-15T08:54:57;2.70;99.90
23267;DHT22;11802;53.160;8.214;2024-01-15T08:57:22;2.80;99.90
23267;DHT22;11802;53.160;8.214;2024-01-15T08:59:49;2.80;99.90
23267;DHT22;11802;53.160;8.214;2024-01-15T09:02:14;2.80;99.90
23267;DHT22;11802;53.160;8.214;2024-01-15T09:04:40;2.90;99.90
23267;DHT22;11802;53.160;8.214;2024-01-15T09:07:07;2.90;99.90
23267;DHT22;11802;53.160;8.214;2024-01-15T09:09:33;2.90;99.90
23267;DHT22;11802;53.160;8.214;2024-01-15T09:12:00;2.80;99.90
23267;DHT22;11802;53.160;8.214;2024-01-15T09:14:25;2.70;99.90
23267;DHT22;11802;53.160;8.214;2024-01-15T09:16:52;2.70;99.90
23267;DHT22;11802;53.160;8.214;2024-01-15T09:19:43;2.70;99.90
23267;DHT22;11802;53.160;8.214;2024-01-15T09:22:54;2.60;99.90
23267;DHT22;11802;53.160;8.214;2024-01-15T09:25:40;2.60;99.90
23267;DHT22;11802;53.160;8.214;2024-01-15T09:28:05;2.60;99.90
23267;DHT22;11802;53.160;8.214;2024-01-15T09:30:33;2.70;99.90
23267;DHT22;11802;53.160;8.214;2024-01-15T09:32:59;2.80;99.90
23267;DHT22;11802;53.160;8.214;2024-01-15T09:35:24;2.80;99.90
23267;DHT22;11802;53.160;8.214;2024-01-15T09:37:50;2.80;99.90
23267;DHT22;11802;53.160;8.214;2024-01-15T09:40:15;2.90;99.90
23267;DHT22;11802;53.160;8.214;2024-01-15T09:42:42;2.80;99.90
23267;DHT22;11802;53.160;8.214;2024-01-15T09:45:08;2.90;99.90
23267;DHT22;11802;53.160;8.214;2024-01-15T09:47:36;2.90;99.90
23267;DHT22;11802;53.160;8.214;2024-01-15T09:50:02;2.90;99.90
23267;DHT22;11802;53.160;8.214;2024-01-15T09:52:30;2.90;99.90
23267;DHT22;11802;53.160;8.214;2024-01-15T09:58:03;2.90;99.90
23267;DHT22;11802;53.160;8.214;2024-01-15T10:00:29;2.70;99.90
23267;DHT22;11802;53.160;8.214;2024-01-15T10:02:58;2.80;99.90
23267;DHT22;11802;53.160;8.214;2024-01-15T10:05:29;2.80;99.90
23267;DHT22;11802;53.160;8.214;2024-01-15T10:07:56;2.60;99.90
23267;DHT22;11802;53.160;8.214;2024-01-15T10:10:23;2.50;99.90
23267;DHT22;11802;53.160;8.214;2024-01-15T10:12:49;2.50;99.90
23267;DHT22;11802;53.160;8.214;2024-01-15T10:15:15;2.60;99.90
23267;DHT22;11802;53.160;8.214;2024-01-15T10:18:00;2.50;99.90
23267;DHT22;11802;53.160;8.214;2024-01-15T10:20:30;2.50;99.90
23267;DHT22;11802;53.160;8.214;2024-01-15T10:22:57;2.60;99.90
23267;DHT22;11802;53.160;8.214;2024-01-15T10:25:23;2.50;99.90
23267;DHT22;11802;53.160;8.214;2024-01-15T10:28:04;2.60;99.90
23267;DHT22;11802;53.160;8.214;2024-01-15T10:31:05;2.70;99.90
23267;DHT22;11802;53.160;8.214;2024-01-15T10:33:36;2.90;99.90
23267;DHT22;11802;53.160;8.214;2024-01-15T10:36:02;3.10;99.90
23267;DHT22;11802;53.160;8.214;2024-01-15T10:41:27;3.20;99.90
23267;DHT22;11802;53.160;8.214;2024-01-15T10:43:53;3.20;99.90
23267;DHT22;11802;53.160;8.214;2024-01-15T10:46:18;3.30;99.90
23267;DHT22;11802;53.160;8.214;2024-01-15T10:48:44;3.20;99.90
23267;DHT22;11802;53.160;8.214;2024-01-15T10:51:10;3.10;99.90
23267;DHT22;11802;53.160;8.214;2024-01-15T10:53:38;3.00;99.90
23267;DHT22;11802;53.160;8.214;2024-01-15T10:56:07;3.00;99.90
23267;DHT22;11802;53.160;8.214;2024-01-15T10:58:34;3.10;99.90
23267;DHT22;11802;53.160;8.214;2024-01-15T11:01:01;3.00;99.90
23267;DHT22;11802;53.160;8.214;2024-01-15T11:03:27;3.20;99.90
23267;DHT22;11802;53.160;8.214;2024-01-15T11:05:53;3.30;99.90
23267;DHT22;11802;53.160;8.214;2024-01-15T11:08:19;3.40;99.90
23267;DHT22;11802;53.160;8.214;2024-01-15T11:10:50;3.40;99.90
23267;DHT22;11802;53.160;8.214;2024-01-15T11:18:21;3.70;99.90
23267;DHT22;11802;53.160;8.214;2024-01-15T11:23:53;3.70;99.90
23267;DHT22;11802;53.160;8.214;2024-01-15T11:26:36;3.70;99.90
23267;DHT22;11802;53.160;8.214;2024-01-15T11:29:07;3.60;99.90
23267;DHT22;11802;53.160;8.214;2024-01-15T11:34:05;3.40;99.90
23267;DHT22;11802;53.160;8.214;2024-01-15T11:39:44;3.10;99.90
23267;DHT22;11802;53.160;8.214;2024-01-15T11:42:12;3.00;99.90
23267;DHT22;11802;53.160;8.214;2024-01-15T11:44:38;2.90;99.90
23267;DHT22;11802;53.160;8.214;2024-01-15T11:47:06;2.90;99.90
23267;DHT22;11802;53.160;8.214;2024-01-15T11:52:17;3.10;99.90
23267;DHT22;11802;53.160;8.214;2024-01-15T11:55:11;3.10;99.90
23267;DHT22;11802;53.160;8.214;2024-01-15T11:57:50;3.20;99.90
23267;DHT22;11802;53.160;8.214;2024-01-15T12:00:16;3.20;99.90
23267;DHT22;11802;53.160;8.214;2024-01-15T12:02:43;3.20;99.90
23267;DHT22;11802;53.160;8.214;2024-01-15T12:05:10;3.30;99.90
23267;DHT22;11802;53.160;8.214;2024-01-15T12:07:58;3.50;99.90
23267;DHT22;11802;53.160;8.214;2024-01-15T12:11:06;3.60;99.90
23267;DHT22;11802;53.160;8.214;2024-01-15T12:16:41;3.70;99.90
23267;DHT22;11802;53.160;8.214;2024-01-15T12:19:07;3.70;99.90
23267;DHT22;11802;53.160;8.214;2024-01-15T12:21:32;3.70;99.90
23267;DHT22;11802;53.160;8.214;2024-01-15T12:23:58;3.70;99.90
23267;DHT22;11802;53.160;8.214;2024-01-15T12:26:24;3.70;99.90
23267;DHT22;11802;53.160;8.214;2024-01-15T12:28:50;3.70;99.90
23267;DHT22;11802;53.160;8.214;2024-01-15T12:31:16;3.60;99.90
23267;DHT22;11802;53.160;8.214;2024-01-15T12:33:42;3.60;99.90
23267;DHT22;11802;53.160;8.214;2024-01-15T12:36:08;3.70;99.90
23267;DHT22;11802;53.160;8.214;2024-01-15T12:38:34;3.70;99.90
23267;DHT22;11802;53.160;8.214;2024-01-15T12:41:00;3.70;99.90
23267;DHT22;11802;53.160;8.214;2024-01-15T12:43:26;3.70;99.90
23267;DHT22;11802;53.160;8.214;2024-01-15T12:45:52;3.80;99.90
23267;DHT22;11802;53.160;8.214;2024-01-15T12:48:17;3.80;99.90
23267;DHT22;11802;53.160;8.214;2024-01-15T12:50:43;3.90;99.90
23267;DHT22;11802;53.160;8.214;2024-01-15T12:53:10;4.00;99.90
23267;DHT22;11802;53.160;8.214;2024-01-15T12:55:36;3.90;99.90
23267;DHT22;11802;53.160;8.214;2024-01-15T12:58:02;3.80;99.90
23267;DHT22;11802;53.160;8.214;2024-01-15T13:00:27;3.60;99.90
23267;DHT22;11802;53.160;8.214;2024-01-15T13:02:53;3.50;99.90
23267;DHT22;11802;53.160;8.214;2024-01-15T13:05:20;3.50;99.90
23267;DHT22;11802;53.160;8.214;2024-01-15T13:07:46;3.60;99.90
23267;DHT22;11802;53.160;8.214;2024-01-15T13:10:12;3.70;99.90
23267;DHT22;11802;53.160;8.214;2024-01-15T13:12:38;3.90;99.90
23267;DHT22;11802;53.160;8.214;2024-01-15T13:15:04;4.20;99.90
23267;DHT22;11802;53.160;8.214;2024-01-15T13:17:30;4.30;99.90
23267;DHT22;11802;53.160;8.214;2024-01-15T13:19:55;4.10;99.90
23267;DHT22;11802;53.160;8.214;2024-01-15T13:22:21;4.00;99.90
23267;DHT22;11802;53.160;8.214;2024-01-15T13:24:49;3.90;99.90
23267;DHT22;11802;53.160;8.214;2024-01-15T13:27:21;3.70;99.90
23267;DHT22;11802;53.160;8.214;2024-01-15T13:30:04;3.70;99.90
23267;DHT22;11802;53.160;8.214;2024-01-15T13:32:38;3.60;99.90
23267;DHT22;11802;53.160;8.214;2024-01-15T13:35:07;3.40;99.90
23267;DHT22;11802;53.160;8.214;2024-01-15T13:37:35;3.30;99.90
23267;DHT22;11802;53.160;8.214;2024-01-15T13:40:02;3.20;99.90
23267;DHT22;11802;53.160;8.214;2024-01-15T13:42:29;3.10;99.90
23267;DHT22;11802;53.160;8.214;2024-01-15T13:44:54;3.00;99.90
23267;DHT22;11802;53.160;8.214;2024-01-15T13:47:20;3.00;99.90
23267;DHT22;11802;53.160;8.214;2024-01-15T13:49:46;3.00;99.90
23267;DHT22;11802;53.160;8.214;2024-01-15T13:52:11;3.00;99.90
23267;DHT22;11802;53.160;8.214;2024-01-15T13:54:37;3.00;99.90
23267;DHT22;11802;53.160;8.214;2024-01-15T13:57:03;3.00;99.90
23267;DHT22;11802;53.160;8.214;2024-01-15T13:59:32;3.10;99.90
23267;DHT22;11802;53.160;8.214;2024-01-15T14:01:57;3.10;99.90
23267;DHT22;11802;53.160;8.214;2024-01-15T14:04:23;3.10;99.90
23267;DHT22;11802;53.160;8.214;2024-01-15T14:06:48;3.10;99.90
23267;DHT22;11802;53.160;8.214;2024-01-15T14:09:14;3.10;99.90
23267;DHT22;11802;53.160;8.214;2024-01-15T14:11:40;3.00;99.90
23267;DHT22;11802;53.160;8.214;2024-01-15T14:14:06;3.10;99.90
23267;DHT22;11802;53.160;8.214;2024-01-15T14:16:33;3.10;99.90
23267;DHT22;11802;53.160;8.214;2024-01-15T14:18:59;3.10;99.90
23267;DHT22;11802;53.160;8.214;2024-01-15T14:21:24;3.10;99.90
23267;DHT22;11802;53.160;8.214;2024-01-15T14:23:50;3.20;99.90
23267;DHT22;11802;53.160;8.214;2024-01-15T14:26:15;3.20;99.90
23267;DHT22;11802;53.160;8.214;2024-01-15T14:28:41;3.20;99.90
23267;DHT22;11802;53.160;8.214;2024-01-15T14:31:07;3.20;99.90
23267;DHT22;11802;53.160;8.214;2024-01-15T14:33:33;3.30;99.90
23267;DHT22;11802;53.160;8.214;2024-01-15T14:35:58;3.40;99.90
23267;DHT22;11802;53.160;8.214;2024-01-15T14:38:24;3.50;99.90
23267;DHT22;11802;53.160;8.214;2024-01-15T14:40:49;3.50;99.90
23267;DHT22;11802;53.160;8.214;2024-01-15T14:43:15;3.60;99.90
23267;DHT22;11802;53.160;8.214;2024-01-15T14:45:41;3.40;99.90
23267;DHT22;11802;53.160;8.214;2024-01-15T14:48:06;3.20;99.90
23267;DHT22;11802;53.160;8.214;2024-01-15T14:50:32;3.20;99.90
23267;DHT22;11802;53.160;8.214;2024-01-15T14:52:58;3.10;99.90
23267;DHT22;11802;53.160;8.214;2024-01-15T14:55:23;3.10;99.90
23267;DHT22;11802;53.160;8.214;2024-01-15T14:57:49;3.10;99.90
23267;DHT22;11802;53.160;8.214;2024-01-15T15:00:15;3.10;99.90
23267;DHT22;11802;53.160;8.214;2024-01-15T15:02:42;3.00;99.90
23267;DHT22;11802;53.160;8.214;2024-01-15T15:05:09;3.00;99.90
23267;DHT22;11802;53.160;8.214;2024-01-15T15:07:35;3.00;99.90
23267;DHT22;11802;53.160;8.214;2024-01-15T15:10:02;3.00;99.90
23267;DHT22;11802;53.160;8.214;2024-01-15T15:12:30;2.90;99.90
23267;DHT22;11802;53.160;8.214;2024-01-15T15:14:55;2.90;99.90
23267;DHT22;11802;53.160;8.214;2024-01-15T15:17:21;2.90;99.90
23267;DHT22;11802;53.160;8.214;2024-01-15T15:19:47;2.90;99.90
23267;DHT22;11802;53.160;8.214;2024-01-15T15:22:13;2.70;99.90
23267;DHT22;11802;53.160;8.214;2024-01-15T15:24:38;2.70;99.90
23267;DHT22;11802;53.160;8.214;2024-01-15T15:27:07;2.70;99.90
23267;DHT22;11802;53.160;8.214;2024-01-15T15:29:33;2.60;99.90
23267;DHT22;11802;53.160;8.214;2024-01-15T15:32:00;2.50;99.90
23267;DHT22;11802;53.160;8.214;2024-01-15T15:34:26;2.30;99.90
23267;DHT22;11802;53.160;8.214;2024-01-15T15:36:51;2.30;99.90
23267;DHT22;11802;53.160;8.214;2024-01-15T15:39:17;2.20;99.90
23267;DHT22;11802;53.160;8.214;2024-01-15T15:41:44;2.20;99.90
23267;DHT22;11802;53.160;8.214;2024-01-15T15:44:09;2.20;99.90
23267;DHT22;11802;53.160;8.214;2024-01-15T15:46:35;2.30;99.90
23267;DHT22;11802;53.160;8.214;2024-01-15T15:49:01;2.40;99.90
23267;DHT22;11802;53.160;8.214;2024-01-15T15:51:32;2.40;99.90
23267;DHT22;11802;53.160;8.214;2024-01-15T15:53:57;2.40;99.90
23267;DHT22;11802;53.160;8.214;2024-01-15T15:56:26;2.50;99.90
23267;DHT22;11802;53.160;8.214;2024-01-15T15:58:51;2.60;99.90
23267;DHT22;11802;53.160;8.214;2024-01-15T16:01:17;2.60;99.90
23267;DHT22;11802;53.160;8.214;2024-01-15T16:03:43;2.70;99.90
23267;DHT22;11802;53.160;8.214;2024-01-15T16:06:08;2.70;99.90
23267;DHT22;11802;53.160;8.214;2024-01-15T16:08:34;2.70;99.90
23267;DHT22;11802;53.160;8.214;2024-01-15T16:10:59;2.70;99.90
23267;DHT22;11802;53.160;8.214;2024-01-15T16:13:25;2.60;99.90
23267;DHT22;11802;53.160;8.214;2024-01-15T16:15:50;2.50;99.90
23267;DHT22;11802;53.160;8.214;2024-01-15T16:18:16;2.50;99.90